Latest Weather Observations for Casino

IDN60801

Issued at 11:34 am EDT Thursday 18 December 2014 (issued every 30 minutes, with the page automatically refreshed every 10 minutes)

About weather observations | Map of weather stations | Latest weather observations for NSW | Other Formats
Station Details ID: 058208 Name: CASINO AIRPORT AWS Lat: -28.88 Lon: 153.06 Height: 20.9 m
Data from the previous 72 hours. | See also: Recent months at Casino
Date/Time
EDT
Temp
°C
App
Temp
°C
Dew
Point
Rel
Hum
%
Delta-T
°C
Wind Press
QNH
hPa
Press
MSL
hPa
Rain
since 9 am
mm
Dir
 
Spd
km/h
Gust
km/h
Spd
kts
Gust
kts
18/11:30am 28.7 30.9 21.2 64 5.0 NE 11 17 6 9 1009.4 1009.3 0.0
18/11:00am 28.2 30.8 22.0 69 4.2 E 11 17 6 9 1009.8 1009.7 0.0
18/10:30am 27.5 29.7 21.8 71 3.8 E 13 17 7 9 1009.9 1009.8 0.0
18/10:00am 26.1 27.8 20.9 73 3.4 NE 13 17 7 9 1010.0 1009.9 0.0
18/09:30am 25.2 27.5 21.3 79 2.6 NE 11 15 6 8 1010.1 1010.0 0.0
18/09:00am 24.1 27.3 20.6 81 2.3 N 4 9 2 5 1009.6 1009.5 1.6
18/08:30am 24.0 26.2 21.1 84 1.9 NW 11 13 6 7 1009.8 1009.7 1.6
18/08:00am 23.6 25.0 20.3 82 2.1 NW 13 17 7 9 1009.7 1009.6 1.6
18/07:30am 23.8 26.1 21.3 86 1.6 NW 11 13 6 7 1009.7 1009.6 1.6
18/07:00am 22.6 25.3 20.7 89 1.2 WNW 7 13 4 7 1009.5 1009.4 1.6
18/06:30am 21.7 24.2 20.3 92 0.9 WNW 7 11 4 6 1009.5 1009.4 1.4
18/06:00am 21.4 23.0 20.0 92 0.9 WNW 11 15 6 8 1009.6 1009.5 1.4
18/05:30am 21.4 23.8 20.0 92 0.9 NW 7 11 4 6 1009.4 1009.3 1.4
18/05:00am 21.3 22.8 19.8 91 1.0 NE 11 11 6 6 1009.4 1009.3 1.4
18/04:30am 22.0 24.8 20.5 91 1.0 NNW 6 9 3 5 1010.2 1010.1 1.4
18/04:00am 22.6 25.1 20.3 87 1.5 N 7 7 4 4 1011.2 1011.1 1.2
18/03:30am 23.0 24.5 19.8 82 2.1 W 11 17 6 9 1011.7 1011.6 0.0
18/03:20am 23.1 24.4 20.1 83 1.9 WNW 13 15 7 8 1011.2 1011.1 0.0
18/03:00am 22.6 24.8 19.6 83 1.9 SE 7 9 4 5 1009.2 1009.1 0.0
18/02:30am 23.2 26.2 20.0 82 2.1 NE 4 7 2 4 1009.6 1009.5 0.0
18/02:00am 22.9 25.1 19.5 81 2.2 E 7 13 4 7 1009.6 1009.5 0.0
18/01:30am 23.6 25.4 19.5 78 2.6 S 9 13 5 7 1010.2 1010.1 0.0
18/01:00am 23.7 25.4 19.4 77 2.8 SSE 9 13 5 7 1010.5 1010.4 0.0
18/12:30am 23.8 25.6 19.5 77 2.8 SSW 9 13 5 7 1010.5 1010.4 0.0
18/12:00am 23.9 25.7 19.6 77 2.8 SSE 9 15 5 8 1010.4 1010.3 0.0
 
Date/Time
EDT
Temp
°C
App
Temp
°C
Dew
Point
Rel
Hum
%
Delta-T
°C
Wind Press
QNH
hPa
Press
MSL
hPa
Rain
since 9 am
mm
Dir
 
Spd
km/h
Gust
km/h
Spd
kts
Gust
kts
17/11:30pm 24.0 25.8 19.5 76 2.9 SE 9 17 5 9 1010.3 1010.2 0.0
17/11:00pm 24.4 25.2 19.9 76 2.9 SSE 15 22 8 12 1010.0 1009.9 0.0
17/10:30pm 24.6 25.1 20.1 76 2.9 SSE 17 26 9 14 1010.1 1010.0 0.0
17/10:00pm 24.9 25.6 20.4 76 2.9 SSE 17 30 9 16 1009.4 1009.3 0.0
17/09:30pm 25.1 25.6 20.8 77 2.8 SSE 19 28 10 15 1008.6 1008.5 0.0
17/09:00pm 24.9 26.5 20.8 78 2.7 SSE 13 19 7 10 1007.4 1007.3 0.0
17/08:30pm 25.3 26.2 20.8 76 3.0 SSE 17 32 9 17 1006.7 1006.6 0.0
17/08:00pm 26.3 26.2 20.8 71 3.6 SSE 22 33 12 18 1005.7 1005.6 0.0
17/07:30pm 28.4 27.4 19.6 59 5.7 SSE 24 41 13 22 1004.4 1004.3 0.0
17/07:27pm 28.9 27.7 19.2 55 6.3 SE 24 41 13 22 1004.3 1004.2 0.0
17/07:00pm 34.1 32.5 15.1 32 11.9 ENE 17 26 9 14 1002.8 1002.7 0.0
17/06:30pm 35.9 34.3 14.0 27 13.5 ENE 15 28 8 15 1002.3 1002.2 0.0
17/06:00pm 39.3 38.5 9.8 17 17.4 SSW 4 7 2 4 1001.8 1001.7 0.0
17/05:30pm 38.7 37.6 10.1 18 16.8 NE 6 7 3 4 1001.5 1001.4 0.0
17/05:00pm 39.3 38.0 9.8 17 17.4 NNW 7 15 4 8 1001.4 1001.3 0.0
17/04:30pm 39.4 37.4 11.5 19 16.8 NW 13 20 7 11 1001.5 1001.4 0.0
17/04:00pm 39.2 39.2 13.6 22 15.9 N 6 13 3 7 1001.8 1001.7 0.0
17/03:30pm 38.8 38.2 11.8 20 16.3 SSW 6 13 3 7 1002.2 1002.1 0.0
17/03:00pm 37.4 36.6 12.8 23 15.0 SE 9 15 5 8 1002.5 1002.4 0.0
17/02:30pm 38.4 38.2 13.6 23 15.3 SSE 7 11 4 6 1002.8 1002.7 0.0
17/02:00pm 37.0 36.5 14.9 27 13.9 WSW 11 26 6 14 1003.0 1002.9 0.0
17/01:30pm 37.6 35.7 14.2 25 14.5 WNW 17 24 9 13 1003.3 1003.2 0.0
17/01:00pm 37.1 35.1 13.8 25 14.4 WNW 17 28 9 15 1003.6 1003.5 0.0
17/12:30pm 36.6 36.4 16.7 30 12.8 WNW 13 22 7 12 1003.9 1003.8 0.0
17/12:00pm 35.7 35.0 17.4 33 11.8 WNW 17 24 9 13 1004.1 1004.0 0.0
17/11:30am 34.6 34.1 17.8 37 10.9 WNW 17 28 9 15 1004.4 1004.3 0.0
17/11:00am 33.6 32.8 18.5 40 9.9 WNW 20 26 11 14 1004.6 1004.5 0.0
17/10:30am 32.7 31.9 18.5 43 9.2 NW 20 26 11 14 1004.7 1004.6 0.0
17/10:00am 31.3 29.9 17.9 44 8.6 NW 22 30 12 16 1004.8 1004.7 0.0
17/09:30am 29.8 30.5 21.2 60 5.8 NNW 19 24 10 13 1005.1 1005.0 0.0
17/09:00am 28.8 29.8 21.0 62 5.2 NNW 17 20 9 11 1005.2 1005.1 6.4
17/08:30am 26.8 28.2 21.1 71 3.8 NW 15 20 8 11 1005.4 1005.3 6.4
17/08:00am 24.9 25.7 20.6 77 2.8 NW 17 26 9 14 1005.3 1005.2 6.4
17/07:30am 23.4 23.9 20.0 81 2.2 NW 17 22 9 12 1005.4 1005.3 6.4
17/07:00am 22.3 23.1 19.8 86 1.6 NW 15 19 8 10 1005.1 1005.0 6.4
17/06:30am 21.4 23.4 20.0 92 0.9 NW 9 13 5 7 1005.1 1005.0 6.4
17/06:00am 20.3 22.2 19.0 92 0.8 WNW 7 9 4 5 1004.6 1004.5 6.4
17/05:30am 20.5 23.8 19.2 92 0.8 CALM 0 6 0 3 1004.5 1004.4 6.4
17/05:00am 21.1 22.6 19.7 92 0.9 WNW 11 13 6 7 1003.9 1003.8 6.2
17/04:30am 21.2 22.7 19.8 92 0.9 NW 11 13 6 7 1003.8 1003.7 6.2
17/04:00am 21.0 24.5 19.6 92 0.9 CALM 0 0 0 0 1004.2 1004.1 6.2
17/03:30am 21.3 25.0 19.9 92 0.9 CALM 0 0 0 0 1004.5 1004.4 6.2
17/03:00am 21.5 25.2 20.0 91 1.0 CALM 0 0 0 0 1004.8 1004.7 6.2
17/02:30am 21.6 24.2 20.1 91 1.0 S 6 9 3 5 1005.0 1004.9 6.2
17/02:00am 21.7 23.8 20.2 91 1.0 NNW 9 11 5 6 1004.9 1004.8 6.2
17/01:30am 21.6 25.4 20.1 91 1.0 CALM 0 0 0 0 1005.7 1005.6 6.2
17/01:00am 21.9 24.7 20.5 92 0.9 NW 6 9 3 5 1007.1 1007.0 6.2
17/12:30am 21.9 24.7 20.5 92 0.9 WNW 6 7 3 4 1007.7 1007.6 6.0
17/12:00am 21.9 24.5 20.4 91 1.0 NNE 7 9 4 5 1008.1 1008.0 5.8
 
Date/Time
EDT
Temp
°C
App
Temp
°C
Dew
Point
Rel
Hum
%
Delta-T
°C
Wind Press
QNH
hPa
Press
MSL
hPa
Rain
since 9 am
mm
Dir
 
Spd
km/h
Gust
km/h
Spd
kts
Gust
kts
16/11:30pm 22.0 24.2 20.5 91 1.0 WNW 9 13 5 7 1008.4 1008.3 5.8
16/11:00pm 21.7 23.4 20.2 91 1.0 ENE 11 15 6 8 1007.4 1007.3 5.8
16/10:30pm 21.9 23.0 20.4 91 1.0 SSE 15 26 8 14 1007.4 1007.3 5.8
16/10:00pm 22.8 22.0 20.0 84 1.8 SSW 24 32 13 17 1008.7 1008.6 2.6
16/09:50pm 23.5 21.6 19.4 78 2.6 SW 28 46 15 25 1008.6 1008.5 0.6
16/09:39pm 23.9 23.6 19.2 75 3.0 SSW 19 39 10 21 1007.8 1007.7 0.0
16/09:30pm 23.7 24.9 19.0 75 3.0 SSE 11 15 6 8 1005.2 1005.1 0.0
16/09:00pm 23.4 24.1 18.9 76 2.9 ESE 13 17 7 9 1004.0 1003.9 0.0
16/08:30pm 23.7 24.0 18.8 74 3.1 ESE 15 19 8 10 1004.0 1003.9 0.0
16/08:00pm 24.5 24.4 18.7 70 3.7 ESE 17 20 9 11 1003.8 1003.7 0.0
16/07:30pm 25.6 25.8 18.5 65 4.5 ESE 15 19 8 10 1003.6 1003.5 0.0
16/07:00pm 27.6 27.6 18.9 59 5.6 E 17 20 9 11 1003.2 1003.1 0.0
16/06:30pm 28.5 28.9 18.9 56 6.2 ENE 15 20 8 11 1003.0 1002.9 0.0
16/06:00pm 28.2 28.2 18.9 57 6.0 E 17 20 9 11 1003.0 1002.9 0.0
16/05:30pm 29.4 28.4 18.8 53 6.8 E 22 30 12 16 1003.2 1003.1 0.0
16/05:00pm 30.4 29.1 18.2 48 7.9 ENE 22 28 12 15 1003.5 1003.4 0.0
16/04:30pm 30.6 28.8 17.0 44 8.6 ENE 22 28 12 15 1003.8 1003.7 0.0
16/04:00pm 31.3 30.3 17.9 44 8.6 ENE 20 28 11 15 1003.9 1003.8 0.0
16/03:30pm 32.8 30.9 11.9 28 12.3 ENE 13 20 7 11 1004.5 1004.4 0.0
16/03:00pm 32.2 31.7 14.8 35 10.7 ENE 11 19 6 10 1004.9 1004.8 0.0
16/02:30pm 31.8 31.2 13.5 32 11.0 NNE 9 15 5 8 1005.3 1005.2 0.0
16/02:00pm 31.5 31.0 15.0 36 10.2 NE 11 22 6 12 1005.6 1005.5 0.0
16/01:30pm 31.1 31.8 17.0 42 8.9 NNE 9 20 5 11 1006.3 1006.2 0.0
16/01:00pm 29.6 29.2 15.3 41 8.8 NE 11 20 6 11 1006.9 1006.8 0.0
16/12:30pm 29.2 28.7 16.0 44 8.2 N 13 20 7 11 1007.6 1007.5 0.0
16/12:00pm 28.3 27.9 16.2 47 7.5 NNE 13 22 7 12 1008.1 1008.0 0.0
16/11:30am 28.1 27.3 16.1 48 7.4 NNE 15 20 8 11 1008.5 1008.4 0.0
16/11:00am 27.0 26.2 15.1 48 7.2 NNW 13 22 7 12 1008.9 1008.8 0.0
16/10:30am 26.4 24.9 15.4 50 6.7 NNW 17 30 9 16 1009.6 1009.5 0.0
16/10:00am 24.7 24.2 14.8 54 5.9 N 11 17 6 9 1009.8 1009.7 0.0
16/09:30am 25.0 23.6 15.6 56 5.7 NNW 17 20 9 11 1010.0 1009.9 0.0
16/09:00am 23.5 22.8 15.3 60 4.9 NNW 13 19 7 10 1010.3 1010.2 0.0
16/08:30am 22.2 21.8 15.3 65 4.1 NW 11 17 6 9 1010.6 1010.5 0.0
16/08:00am 20.4 20.5 15.6 74 2.9 NW 9 13 5 7 1011.0 1010.9 0.0
16/07:30am 18.6 17.9 15.3 81 1.9 NW 13 17 7 9 1011.0 1010.9 0.0
16/07:00am 17.2 16.3 14.8 86 1.4 NW 13 19 7 10 1010.9 1010.8 0.0
16/06:30am 16.0 15.3 14.2 89 1.0 NW 11 15 6 8 1010.3 1010.2 0.0
16/06:00am 15.2 14.6 13.6 90 0.9 W 9 13 5 7 1010.0 1009.9 0.0
16/05:30am 15.0 14.7 13.2 89 1.0 NNW 7 9 4 5 1009.7 1009.6 0.0
16/05:00am 15.2 14.6 13.4 89 1.0 NW 9 11 5 6 1010.1 1010.0 0.0
16/04:30am 15.4 14.9 13.8 90 0.9 NW 9 11 5 6 1010.2 1010.1 0.0
16/04:00am 14.7 14.6 13.4 92 0.7 WNW 6 7 3 4 1010.2 1010.1 0.0
16/03:30am 14.4 13.9 12.6 89 1.0 NNW 7 9 4 5 1010.0 1009.9 0.0
16/03:00am 15.4 15.6 14.1 92 0.7 WNW 6 7 3 4 1010.3 1010.2 0.0
16/02:30am 14.7 15.2 12.9 89 1.0 WNW 2 6 1 3 1010.3 1010.2 0.0
16/02:00am 15.4 15.8 13.6 89 1.0 WNW 4 6 2 3 1010.6 1010.5 0.0
16/01:30am 15.4 16.5 13.4 88 1.1 CALM 0 0 0 0 1010.9 1010.8 0.0
16/01:00am 15.8 17.0 13.8 88 1.1 CALM 0 0 0 0 1011.2 1011.1 0.0
16/12:30am 16.0 17.2 13.7 86 1.3 CALM 0 0 0 0 1011.5 1011.4 0.0
16/12:00am 16.0 17.0 13.3 84 1.5 CALM 0 0 0 0 1011.7 1011.6 0.0
 
Date/Time
EDT
Temp
°C
App
Temp
°C
Dew
Point
Rel
Hum
%
Delta-T
°C
Wind Press
QNH
hPa
Press
MSL
hPa
Rain
since 9 am
mm
Dir
 
Spd
km/h
Gust
km/h
Spd
kts
Gust
kts
15/11:30pm 16.4 16.4 13.7 84 1.5 SW 6 6 3 3 1012.1 1012.0 0.0
15/11:00pm 16.9 17.0 14.0 83 1.6 WSW 6 7 3 4 1012.3 1012.2 0.0
15/10:30pm 17.9 18.9 14.4 80 2.0 WNW 2 7 1 4 1012.3 1012.2 0.0
15/10:00pm 18.6 20.1 14.7 78 2.3 CALM 0 0 0 0 1012.2 1012.1 0.0
15/09:30pm 19.0 19.7 14.5 75 2.6 N 4 7 2 4 1011.9 1011.8 0.0
15/09:00pm 20.0 19.5 13.7 67 3.6 SE 9 13 5 7 1011.7 1011.6 0.0
15/08:30pm 21.1 20.4 14.3 65 4.0 SE 11 13 6 7 1011.5 1011.4 0.0
15/08:00pm 21.0 19.8 13.9 64 4.1 ESE 13 15 7 8 1011.4 1011.3 0.0
15/07:30pm 22.2 20.5 13.5 57 5.0 E 15 20 8 11 1011.0 1010.9 0.0
15/07:00pm 22.4 19.8 13.2 56 5.3 E 19 24 10 13 1010.9 1010.8 0.0
15/06:30pm 23.3 20.5 13.2 53 5.8 E 20 28 11 15 1010.3 1010.2 0.0
15/06:00pm 24.4 21.1 13.9 52 6.2 E 24 28 13 15 1009.9 1009.8 0.0
15/05:30pm 24.7 21.2 13.3 49 6.6 ESE 24 33 13 18 1009.8 1009.7 0.0
15/05:00pm 26.1 22.3 13.6 46 7.4 E 26 35 14 19 1009.3 1009.2 0.0
15/04:30pm 26.5 22.8 13.9 45 7.5 ESE 26 35 14 19 1009.1 1009.0 0.0
15/04:00pm 27.6 24.4 15.3 47 7.5 ESE 26 33 14 18 1009.2 1009.1 0.0
15/03:30pm 27.2 23.7 14.6 46 7.6 ESE 26 37 14 20 1009.4 1009.3 0.0
15/03:00pm 28.1 25.2 15.1 45 7.9 E 24 33 13 18 1009.4 1009.3 0.0
15/02:30pm 27.6 24.6 14.9 45 7.7 E 24 33 13 18 1009.4 1009.3 0.0
15/02:00pm 28.3 26.3 13.8 41 8.7 SE 17 28 9 15 1009.6 1009.5 0.0
15/01:30pm 28.1 27.3 14.0 42 8.4 SE 11 24 6 13 1009.8 1009.7 0.0
15/01:00pm 27.4 26.3 13.0 41 8.5 S 11 22 6 12 1010.1 1010.0 0.0
15/12:30pm 26.0 25.1 12.5 43 7.8 SE 9 17 5 9 1010.4 1010.3 0.0
15/12:00pm 27.2 27.5 14.9 47 7.4 SE 7 11 4 6 1010.9 1010.8 0.0

Other Formats:

Comma delimited format used in spreadsheet applications
http://www.bom.gov.au/fwo/IDN60801/IDN60801.94573.axf

JavaScript Object Notation format (JSON) in row-major order
http://www.bom.gov.au/fwo/IDN60801/IDN60801.94573.json